Time;durP1;ratioP1;P1;durP2;ratioP2;P2;SDS_P1;SDS_P2;PMS_P1;PMS_P2;Temp;Humidity;BMP_temperature;BMP_pressure;BME280_temperature;BME280_humidity;BME280_pressure;Samples;Min_cycle;Max_cycle;Signal;HPM_P1;HPM_P2
2023/08/10 00:00:25;;;;;;;;;;;15.80;80.00;;;;;;4984518;28;20374;-83
2023/08/10 00:02:51;;;;;;;;;;;15.80;80.60;;;;;;4986455;28;19926;-85
2023/08/10 00:05:16;;;;;;;;;;;15.80;80.60;;;;;;4986880;28;19945;-84
2023/08/10 00:07:42;;;;;;;;;;;15.80;80.30;;;;;;4984780;28;20399;-84
2023/08/10 00:10:08;;;;;;;;;;;15.90;79.80;;;;;;5008328;28;20009;-85
2023/08/10 00:12:34;;;;;;;;;;;16.00;80.00;;;;;;4985323;28;19926;-83
2023/08/10 00:15:00;;;;;;;;;;;16.00;79.70;;;;;;4984744;28;19918;-84
2023/08/10 00:17:25;;;;;;;;;;;16.00;79.60;;;;;;4986129;28;20247;-85
2023/08/10 00:19:50;;;;;;;;;;;15.90;79.80;;;;;;4985111;28;19914;-86
2023/08/10 00:22:16;;;;;;;;;;;15.90;79.90;;;;;;4987269;28;19945;-85
2023/08/10 00:24:42;;;;;;;;;;;16.00;79.50;;;;;;4985237;28;19922;-84
2023/08/10 00:27:08;;;;;;;;;;;16.00;79.60;;;;;;4982912;28;19914;-86
2023/08/10 00:29:33;;;;;;;;;;;16.00;79.80;;;;;;4987626;28;19921;-86
2023/08/10 00:31:59;;;;;;;;;;;15.90;80.00;;;;;;4986321;28;19914;-85
2023/08/10 00:34:24;;;;;;;;;;;15.90;80.00;;;;;;4993449;28;19918;-86
2023/08/10 00:36:50;;;;;;;;;;;15.80;80.10;;;;;;4992201;28;19925;-86
2023/08/10 00:39:17;;;;;;;;;;;15.80;79.90;;;;;;4990257;28;19914;-85
2023/08/10 00:41:43;;;;;;;;;;;15.90;80.50;;;;;;4992538;28;20150;-85
2023/08/10 00:44:08;;;;;;;;;;;15.90;81.30;;;;;;4991145;28;19943;-85
2023/08/10 00:46:34;;;;;;;;;;;15.90;81.10;;;;;;4989870;28;19910;-85
2023/08/10 00:48:59;;;;;;;;;;;15.80;81.20;;;;;;4989683;28;19949;-85
2023/08/10 00:51:25;;;;;;;;;;;15.80;81.40;;;;;;4988694;28;19917;-86
2023/08/10 00:53:51;;;;;;;;;;;15.70;81.40;;;;;;4987854;28;19976;-85
2023/08/10 00:56:16;;;;;;;;;;;15.70;81.90;;;;;;5008695;28;19937;-85
2023/08/10 00:58:42;;;;;;;;;;;15.70;82.00;;;;;;5012311;28;19913;-86
2023/08/10 01:01:08;;;;;;;;;;;15.60;82.30;;;;;;4994993;28;19925;-86
2023/08/10 01:03:34;;;;;;;;;;;15.60;82.70;;;;;;4987467;28;19917;-86
2023/08/10 01:06:09;;;;;;;;;;;15.70;82.60;;;;;;4988117;28;19943;-86
2023/08/10 01:08:54;;;;;;;;;;;15.70;82.40;;;;;;4984585;28;19914;-86
2023/08/10 01:11:20;;;;;;;;;;;15.60;82.20;;;;;;4980020;28;20285;-85
2023/08/10 01:14:03;;;;;;;;;;;15.60;81.80;;;;;;4976056;28;19918;-85
2023/08/10 01:16:29;;;;;;;;;;;15.60;81.40;;;;;;4975626;28;19914;-85
2023/08/10 01:18:55;;;;;;;;;;;15.70;81.20;;;;;;4976941;28;19921;-85
2023/08/10 01:21:23;;;;;;;;;;;15.70;81.30;;;;;;4987355;28;19914;-85
2023/08/10 01:23:51;;;;;;;;;;;15.70;80.70;;;;;;4981496;28;19922;-85
2023/08/10 01:26:17;;;;;;;;;;;15.60;81.40;;;;;;4978999;28;20389;-86
2023/08/10 01:28:42;;;;;;;;;;;15.70;80.90;;;;;;4978933;28;19926;-85
2023/08/10 01:31:08;;;;;;;;;;;15.60;81.30;;;;;;4978654;28;20325;-85
2023/08/10 01:33:34;;;;;;;;;;;15.70;81.40;;;;;;4979955;28;19914;-82
2023/08/10 01:36:00;;;;;;;;;;;15.70;81.70;;;;;;4976686;28;19945;-87
2023/08/10 01:38:25;;;;;;;;;;;15.70;81.60;;;;;;4976886;28;19933;-84
2023/08/10 01:40:51;;;;;;;;;;;15.80;81.40;;;;;;4980445;28;20012;-83
2023/08/10 01:43:17;;;;;;;;;;;15.70;81.60;;;;;;4981298;28;19934;-84
2023/08/10 01:45:45;;;;;;;;;;;15.70;82.30;;;;;;4979346;28;20371;-84
2023/08/10 01:48:11;;;;;;;;;;;15.70;82.20;;;;;;4983670;28;20048;-84
2023/08/10 01:50:38;;;;;;;;;;;15.60;82.50;;;;;;4982971;28;20577;-86
2023/08/10 01:53:05;;;;;;;;;;;15.60;82.40;;;;;;4984398;28;19937;-84
2023/08/10 01:55:31;;;;;;;;;;;15.60;82.50;;;;;;4978010;28;19922;-84
2023/08/10 01:57:56;;;;;;;;;;;15.60;82.90;;;;;;4980739;28;20263;-85
2023/08/10 02:00:22;;;;;;;;;;;15.60;82.80;;;;;;5009016;23;19921;-81
2023/08/10 02:02:47;;;;;;;;;;;15.50;82.50;;;;;;4996279;28;19956;-83
2023/08/10 02:05:13;;;;;;;;;;;15.60;82.30;;;;;;4974897;28;19913;-83
2023/08/10 02:07:41;;;;;;;;;;;15.60;82.40;;;;;;4985841;28;19921;-83
2023/08/10 02:10:07;;;;;;;;;;;15.60;82.10;;;;;;4995456;28;20288;-83
2023/08/10 02:12:32;;;;;;;;;;;15.60;82.20;;;;;;4997603;28;19914;-83
2023/08/10 02:14:58;;;;;;;;;;;15.60;82.70;;;;;;5008904;28;19981;-81
2023/08/10 02:17:25;;;;;;;;;;;15.60;82.90;;;;;;4997700;28;19921;-83
2023/08/10 02:19:50;;;;;;;;;;;15.60;83.30;;;;;;4988637;28;19947;-84
2023/08/10 02:22:16;;;;;;;;;;;15.60;83.30;;;;;;4987125;28;19911;-83
2023/08/10 02:24:41;;;;;;;;;;;15.70;82.90;;;;;;4991647;28;19924;-84
2023/08/10 02:27:07;;;;;;;;;;;15.70;83.10;;;;;;4986940;28;19914;-83
2023/08/10 02:29:32;;;;;;;;;;;15.60;83.50;;;;;;4986767;28;19914;-83
2023/08/10 02:32:00;;;;;;;;;;;15.60;83.40;;;;;;4985517;28;19921;-83
2023/08/10 02:34:26;;;;;;;;;;;15.60;83.50;;;;;;4999811;28;20389;-82
2023/08/10 02:36:51;;;;;;;;;;;15.60;83.40;;;;;;4980727;28;19993;-83
2023/08/10 02:39:17;;;;;;;;;;;15.50;83.50;;;;;;4996932;28;19926;-82
2023/08/10 02:41:42;;;;;;;;;;;15.50;83.70;;;;;;4978043;28;19921;-81
2023/08/10 02:44:08;;;;;;;;;;;15.50;84.00;;;;;;4979327;28;19918;-83
2023/08/10 02:46:33;;;;;;;;;;;15.40;84.10;;;;;;4979867;28;19988;-82
2023/08/10 02:48:59;;;;;;;;;;;15.40;84.00;;;;;;4997325;28;20414;-83
2023/08/10 02:51:24;;;;;;;;;;;15.30;84.00;;;;;;4981269;28;19914;-83
2023/08/10 02:53:50;;;;;;;;;;;15.30;84.50;;;;;;4998194;28;19921;-83
2023/08/10 02:56:15;;;;;;;;;;;15.30;84.50;;;;;;4981433;28;19914;-82
2023/08/10 02:58:41;;;;;;;;;;;15.40;84.30;;;;;;4982887;28;20307;-83
2023/08/10 03:01:06;;;;;;;;;;;15.50;83.90;;;;;;4982949;28;20386;-84
2023/08/10 03:03:33;;;;;;;;;;;15.50;83.70;;;;;;4979381;28;19952;-83
2023/08/10 03:05:59;;;;;;;;;;;15.50;84.10;;;;;;4980035;28;19910;-83
2023/08/10 03:08:25;;;;;;;;;;;15.40;84.30;;;;;;4980760;28;19913;-83
2023/08/10 03:10:50;;;;;;;;;;;15.50;84.20;;;;;;4982126;28;19921;-83
2023/08/10 03:13:16;;;;;;;;;;;15.50;83.30;;;;;;4981487;28;20606;-82
2023/08/10 03:15:41;;;;;;;;;;;15.50;83.20;;;;;;4981883;28;19913;-83
2023/08/10 03:18:06;;;;;;;;;;;15.50;83.10;;;;;;4980371;28;19914;-83
2023/08/10 03:20:32;;;;;;;;;;;15.50;83.40;;;;;;4981791;28;19921;-83
2023/08/10 03:22:57;;;;;;;;;;;15.50;83.70;;;;;;4978483;28;19949;-83
2023/08/10 03:25:23;;;;;;;;;;;15.50;83.70;;;;;;4978521;28;19920;-83
2023/08/10 03:27:48;;;;;;;;;;;15.40;83.90;;;;;;4979381;28;20368;-83
2023/08/10 03:30:14;;;;;;;;;;;15.30;84.30;;;;;;4990432;28;19913;-83
2023/08/10 03:32:40;;;;;;;;;;;15.30;84.70;;;;;;4997575;28;19917;-82
2023/08/10 03:35:05;;;;;;;;;;;15.40;84.80;;;;;;5005389;28;19922;-82
2023/08/10 03:37:31;;;;;;;;;;;15.40;84.80;;;;;;4961419;28;19910;-83
2023/08/10 03:39:56;;;;;;;;;;;15.40;84.70;;;;;;4983880;28;19953;-82
2023/08/10 03:42:22;;;;;;;;;;;15.50;84.90;;;;;;4997054;28;19917;-83
2023/08/10 03:44:47;;;;;;;;;;;15.50;84.70;;;;;;5010812;28;19910;-82
2023/08/10 03:47:13;;;;;;;;;;;15.50;84.90;;;;;;5015723;28;19898;-82
2023/08/10 03:49:38;;;;;;;;;;;15.50;84.70;;;;;;5004327;28;19953;-82
2023/08/10 03:52:04;;;;;;;;;;;15.30;85.00;;;;;;4984524;28;19976;-83
2023/08/10 03:54:29;;;;;;;;;;;15.40;85.10;;;;;;5000274;28;20387;-82
2023/08/10 03:56:55;;;;;;;;;;;15.40;85.00;;;;;;5001205;28;19924;-83
2023/08/10 03:59:20;;;;;;;;;;;15.40;84.90;;;;;;4990918;28;19942;-83
2023/08/10 04:01:46;;;;;;;;;;;15.40;85.00;;;;;;4982969;28;19922;-82
2023/08/10 04:04:11;;;;;;;;;;;15.40;84.50;;;;;;4984598;28;19937;-83
2023/08/10 04:06:37;;;;;;;;;;;15.30;84.50;;;;;;4989874;28;19960;-82
2023/08/10 04:09:04;;;;;;;;;;;15.30;84.50;;;;;;4978426;28;20391;-83
2023/08/10 04:11:30;;;;;;;;;;;15.30;85.00;;;;;;4994030;28;19913;-82
2023/08/10 04:13:55;;;;;;;;;;;15.30;85.00;;;;;;4995921;28;20072;-83
2023/08/10 04:16:21;;;;;;;;;;;15.40;84.50;;;;;;4987941;28;19910;-82
2023/08/10 04:18:47;;;;;;;;;;;15.40;84.00;;;;;;4986452;28;19914;-83
2023/08/10 04:21:13;;;;;;;;;;;15.30;84.20;;;;;;4984347;28;20416;-84
2023/08/10 04:23:40;;;;;;;;;;;15.40;83.80;;;;;;5003925;28;19948;-83
2023/08/10 04:26:07;;;;;;;;;;;15.40;83.90;;;;;;4994137;28;19914;-83
2023/08/10 04:28:33;;;;;;;;;;;15.30;84.10;;;;;;4988787;28;19918;-83
2023/08/10 04:30:58;;;;;;;;;;;15.40;84.00;;;;;;4991006;28;19921;-82
2023/08/10 04:33:24;;;;;;;;;;;15.30;83.30;;;;;;4993481;28;19904;-81
2023/08/10 04:35:49;;;;;;;;;;;15.40;83.30;;;;;;5003902;28;19937;-81
2023/08/10 04:38:15;;;;;;;;;;;15.40;83.10;;;;;;4992106;28;19921;-84
2023/08/10 04:40:41;;;;;;;;;;;15.40;83.20;;;;;;4990805;28;19932;-83
2023/08/10 04:43:06;;;;;;;;;;;15.40;83.70;;;;;;5004815;28;19998;-84
2023/08/10 04:45:32;;;;;;;;;;;15.40;83.30;;;;;;4987672;28;19914;-82
2023/08/10 04:47:57;;;;;;;;;;;15.30;83.10;;;;;;4985168;28;19916;-84
2023/08/10 04:50:23;;;;;;;;;;;15.30;82.90;;;;;;4985762;28;20331;-84
2023/08/10 04:52:48;;;;;;;;;;;15.20;83.50;;;;;;4985870;28;19914;-83
2023/08/10 04:55:14;;;;;;;;;;;15.20;83.40;;;;;;4981707;28;19929;-83
2023/08/10 04:57:39;;;;;;;;;;;15.30;83.30;;;;;;4998578;28;20402;-84
2023/08/10 05:00:14;;;;;;;;;;;15.30;83.60;;;;;;4984774;28;19949;-84
2023/08/10 05:02:40;;;;;;;;;;;15.30;83.60;;;;;;4982820;28;19917;-83
2023/08/10 05:05:06;;;;;;;;;;;15.30;83.40;;;;;;4987020;28;19914;-83
2023/08/10 05:07:32;;;;;;;;;;;15.20;83.60;;;;;;4985066;28;19913;-81
2023/08/10 05:09:58;;;;;;;;;;;15.20;83.80;;;;;;4983358;28;19914;-84
2023/08/10 05:12:23;;;;;;;;;;;15.20;84.00;;;;;;4981082;28;19977;-84
2023/08/10 05:14:49;;;;;;;;;;;15.20;84.50;;;;;;4977709;28;19981;-85
2023/08/10 05:17:14;;;;;;;;;;;15.20;84.10;;;;;;4977033;28;19914;-84
2023/08/10 05:19:40;;;;;;;;;;;15.20;84.60;;;;;;4989475;28;20341;-84
2023/08/10 05:22:05;;;;;;;;;;;15.10;84.80;;;;;;4990743;28;19921;-86
2023/08/10 05:24:32;;;;;;;;;;;15.20;84.30;;;;;;4979301;28;19960;-89
2023/08/10 05:26:58;;;;;;;;;;;15.10;84.50;;;;;;4996116;28;20384;-86
2023/08/10 05:29:23;;;;;;;;;;;15.20;84.60;;;;;;4999917;28;19920;-86
2023/08/10 05:31:52;;;;;;;;;;;15.20;84.10;;;;;;4976995;28;19918;-84
2023/08/10 05:34:17;;;;;;;;;;;15.20;83.60;;;;;;4975971;28;20016;-83
2023/08/10 05:36:43;;;;;;;;;;;15.30;83.30;;;;;;4993943;28;19941;-83
2023/08/10 05:39:08;;;;;;;;;;;15.30;83.40;;;;;;4979341;28;19938;-83
2023/08/10 05:41:34;;;;;;;;;;;15.30;83.60;;;;;;4985351;28;19921;-84
2023/08/10 05:43:59;;;;;;;;;;;15.20;83.70;;;;;;4987794;28;20086;-82
2023/08/10 05:46:25;;;;;;;;;;;15.20;83.30;;;;;;5002593;28;19914;-80
2023/08/10 05:48:50;;;;;;;;;;;15.20;83.50;;;;;;5019331;28;19909;-82
2023/08/10 05:51:16;;;;;;;;;;;15.20;83.20;;;;;;4985087;28;19913;-83
2023/08/10 05:53:41;;;;;;;;;;;15.20;83.30;;;;;;4991213;28;19917;-82
2023/08/10 05:56:08;;;;;;;;;;;15.10;83.70;;;;;;5016555;28;19910;-82
2023/08/10 05:58:33;;;;;;;;;;;15.10;83.60;;;;;;4999435;28;19898;-82
2023/08/10 06:00:59;;;;;;;;;;;15.20;83.70;;;;;;4994943;28;19917;-85
2023/08/10 06:03:24;;;;;;;;;;;15.20;83.70;;;;;;4991126;28;19921;-84
2023/08/10 06:05:50;;;;;;;;;;;15.20;83.40;;;;;;4988285;28;19977;-82
2023/08/10 06:08:15;;;;;;;;;;;15.20;83.50;;;;;;4990516;28;19917;-83
2023/08/10 06:10:40;;;;;;;;;;;15.20;83.90;;;;;;5008063;28;19909;-84
2023/08/10 06:13:06;;;;;;;;;;;15.10;83.80;;;;;;5007723;28;19973;-83
2023/08/10 06:15:32;;;;;;;;;;;15.20;83.60;;;;;;5005182;28;19921;-84
2023/08/10 06:17:58;;;;;;;;;;;15.30;83.60;;;;;;4983810;28;19921;-83
2023/08/10 06:20:26;;;;;;;;;;;15.60;83.10;;;;;;4986750;28;19910;-83
2023/08/10 06:22:53;;;;;;;;;;;15.60;83.00;;;;;;4984851;28;20006;-84
2023/08/10 06:25:19;;;;;;;;;;;15.70;82.40;;;;;;5002400;28;19917;-84
2023/08/10 06:27:44;;;;;;;;;;;16.00;81.20;;;;;;4987596;28;19910;-84
2023/08/10 06:30:10;;;;;;;;;;;16.10;80.50;;;;;;4987477;28;19914;-83
2023/08/10 06:32:37;;;;;;;;;;;16.10;80.20;;;;;;4987406;28;19964;-83
2023/08/10 06:35:05;;;;;;;;;;;16.20;79.80;;;;;;4988130;28;19918;-84
2023/08/10 06:37:32;;;;;;;;;;;16.20;79.10;;;;;;5004001;28;19917;-84
2023/08/10 06:39:58;;;;;;;;;;;16.20;79.00;;;;;;5003762;28;19917;-84
2023/08/10 06:42:23;;;;;;;;;;;16.10;79.20;;;;;;5004345;28;19910;-83
2023/08/10 06:44:49;;;;;;;;;;;16.20;79.20;;;;;;5006300;28;20360;-82
2023/08/10 06:47:14;;;;;;;;;;;16.20;79.80;;;;;;5007292;28;19909;-82
2023/08/10 06:49:40;;;;;;;;;;;16.10;79.80;;;;;;5000787;28;19916;-81
2023/08/10 06:52:06;;;;;;;;;;;16.20;79.80;;;;;;4999376;28;19965;-81
2023/08/10 06:54:31;;;;;;;;;;;16.30;79.70;;;;;;5001871;28;19936;-79
2023/08/10 06:56:57;;;;;;;;;;;16.30;78.60;;;;;;5008763;28;19917;-82
2023/08/10 06:59:23;;;;;;;;;;;16.40;78.10;;;;;;4995966;28;19914;-82
2023/08/10 07:01:51;;;;;;;;;;;16.40;77.50;;;;;;4977295;28;19946;-81
2023/08/10 07:04:17;;;;;;;;;;;16.50;77.30;;;;;;4977588;28;20359;-81
2023/08/10 07:06:43;;;;;;;;;;;16.40;76.80;;;;;;4997097;28;19918;-82
2023/08/10 07:09:09;;;;;;;;;;;16.50;76.80;;;;;;4997201;28;20076;-83
2023/08/10 07:11:35;;;;;;;;;;;16.50;77.30;;;;;;4977855;28;19918;-82
2023/08/10 07:14:01;;;;;;;;;;;16.40;77.30;;;;;;4977500;28;19924;-83
2023/08/10 07:16:26;;;;;;;;;;;16.50;77.10;;;;;;4975160;28;19956;-83
2023/08/10 07:18:52;;;;;;;;;;;16.60;77.40;;;;;;4988581;28;19914;-83
2023/08/10 07:21:17;;;;;;;;;;;16.60;77.70;;;;;;4997200;28;20308;-82
2023/08/10 07:23:43;;;;;;;;;;;16.70;76.70;;;;;;4979701;28;21136;-83
2023/08/10 07:26:08;;;;;;;;;;;16.80;76.80;;;;;;4989523;28;19921;-83
2023/08/10 07:28:33;;;;;;;;;;;16.80;75.20;;;;;;4981181;28;19962;-83
2023/08/10 07:30:59;;;;;;;;;;;16.80;75.00;;;;;;4980005;28;19910;-83
2023/08/10 07:33:25;;;;;;;;;;;17.00;74.60;;;;;;4983888;28;19937;-82
2023/08/10 07:35:50;;;;;;;;;;;17.00;74.70;;;;;;4983150;28;19994;-83
2023/08/10 07:38:19;;;;;;;;;;;17.00;75.00;;;;;;4984443;28;19964;-83
2023/08/10 07:40:44;;;;;;;;;;;17.10;75.30;;;;;;4984231;28;19964;-83
2023/08/10 07:43:09;;;;;;;;;;;17.10;74.70;;;;;;5000296;28;19910;-83
2023/08/10 07:45:36;;;;;;;;;;;17.10;74.80;;;;;;4996533;28;20398;-82
2023/08/10 07:48:01;;;;;;;;;;;17.10;74.20;;;;;;4993694;28;19910;-83
2023/08/10 07:50:28;;;;;;;;;;;17.10;74.00;;;;;;4976586;28;19914;-81
2023/08/10 07:52:53;;;;;;;;;;;17.10;73.80;;;;;;4993712;28;19917;-82
2023/08/10 07:55:19;;;;;;;;;;;17.10;72.80;;;;;;4994534;28;19918;-81
2023/08/10 07:57:45;;;;;;;;;;;17.20;73.10;;;;;;4980425;28;19914;-82
2023/08/10 08:02:40;;;;;;;;;;;17.30;72.40;;;;;;5006499;28;19934;-82
2023/08/10 08:05:11;;;;;;;;;;;17.40;70.90;;;;;;5011714;28;20219;-86
2023/08/10 08:07:37;;;;;;;;;;;17.50;70.90;;;;;;5001993;28;20305;-83
2023/08/10 08:10:03;;;;;;;;;;;17.60;70.80;;;;;;5003760;28;19910;-82
2023/08/10 08:12:29;;;;;;;;;;;17.70;69.20;;;;;;4990328;28;19921;-82
2023/08/10 08:14:55;;;;;;;;;;;17.70;68.00;;;;;;4989702;28;19926;-82
2023/08/10 08:17:20;;;;;;;;;;;17.80;67.50;;;;;;4970935;28;20371;-82
2023/08/10 08:19:46;;;;;;;;;;;17.80;68.10;;;;;;4969785;28;19918;-81
2023/08/10 08:22:11;;;;;;;;;;;17.80;67.80;;;;;;4974235;28;19941;-82
2023/08/10 08:24:37;;;;;;;;;;;17.80;69.60;;;;;;4980363;28;20173;-82
2023/08/10 08:27:03;;;;;;;;;;;17.80;68.90;;;;;;4978765;28;20049;-82
2023/08/10 08:29:28;;;;;;;;;;;17.90;67.60;;;;;;4980198;28;19985;-82
2023/08/10 08:31:54;;;;;;;;;;;17.90;66.50;;;;;;4979743;28;19917;-82
2023/08/10 08:34:19;;;;;;;;;;;18.00;65.10;;;;;;4981161;28;20678;-82
2023/08/10 08:36:45;;;;;;;;;;;18.10;64.40;;;;;;4981294;28;19926;-83
2023/08/10 08:39:10;;;;;;;;;;;18.10;63.40;;;;;;4973898;28;19965;-82
2023/08/10 08:41:37;;;;;;;;;;;18.20;63.40;;;;;;4979137;28;19980;-82
2023/08/10 08:44:06;;;;;;;;;;;18.30;63.80;;;;;;4969813;28;19934;-82
2023/08/10 08:46:32;;;;;;;;;;;18.30;62.30;;;;;;4969442;28;19910;-81
2023/08/10 08:48:59;;;;;;;;;;;18.30;62.60;;;;;;4975714;28;19938;-82
2023/08/10 08:51:24;;;;;;;;;;;18.30;62.70;;;;;;4970826;28;19918;-81
2023/08/10 08:53:51;;;;;;;;;;;18.10;63.80;;;;;;4988134;28;20022;-83
2023/08/10 08:56:17;;;;;;;;;;;18.30;64.90;;;;;;4967532;28;19919;-83
2023/08/10 08:58:42;;;;;;;;;;;18.30;64.20;;;;;;4982136;28;19918;-83
2023/08/10 09:01:08;;;;;;;;;;;18.30;62.10;;;;;;4972918;28;19974;-81
2023/08/10 09:03:34;;;;;;;;;;;18.30;63.30;;;;;;4968598;28;19910;-82
2023/08/10 09:06:00;;;;;;;;;;;18.50;62.80;;;;;;4982520;28;19960;-82
2023/08/10 09:08:25;;;;;;;;;;;18.70;60.60;;;;;;4977206;28;19914;-83
2023/08/10 09:10:51;;;;;;;;;;;18.80;60.70;;;;;;4975814;28;19978;-82
2023/08/10 09:13:23;;;;;;;;;;;19.00;58.50;;;;;;4961578;28;19911;-80
2023/08/10 09:16:04;;;;;;;;;;;18.90;59.70;;;;;;4965122;28;19965;-82
2023/08/10 09:18:30;;;;;;;;;;;18.70;59.00;;;;;;4976291;28;19933;-82
2023/08/10 09:21:05;;;;;;;;;;;18.50;61.10;;;;;;4964435;28;19917;-83
2023/08/10 09:23:33;;;;;;;;;;;18.60;61.60;;;;;;4982187;28;19910;-82
2023/08/10 09:25:59;;;;;;;;;;;18.70;60.10;;;;;;4983296;28;19965;-82
2023/08/10 09:28:24;;;;;;;;;;;18.80;60.00;;;;;;4982900;28;20332;-83
2023/08/10 09:30:50;;;;;;;;;;;18.90;60.50;;;;;;4982660;28;19937;-84
2023/08/10 09:33:28;;;;;;;;;;;18.90;61.10;;;;;;4979592;28;19910;-83
2023/08/10 09:35:57;;;;;;;;;;;19.00;60.70;;;;;;4974756;28;19938;-82
2023/08/10 09:38:23;;;;;;;;;;;19.10;59.40;;;;;;4978669;28;19941;-82
2023/08/10 09:40:49;;;;;;;;;;;19.00;60.00;;;;;;4976671;28;19919;-84
2023/08/10 09:43:14;;;;;;;;;;;19.00;61.70;;;;;;4977911;28;20297;-82
2023/08/10 09:45:40;;;;;;;;;;;19.10;61.10;;;;;;4976690;28;20327;-82
2023/08/10 09:48:10;;;;;;;;;;;19.20;61.00;;;;;;4976127;28;19957;-83
2023/08/10 09:50:35;;;;;;;;;;;19.20;61.50;;;;;;4974978;28;19925;-83
2023/08/10 09:53:01;;;;;;;;;;;19.30;61.30;;;;;;4970564;28;19910;-83
2023/08/10 09:55:26;;;;;;;;;;;19.50;60.20;;;;;;4974454;28;19924;-82
2023/08/10 09:57:52;;;;;;;;;;;19.60;59.40;;;;;;4976259;28;19910;-83
2023/08/10 10:00:22;;;;;;;;;;;19.50;60.20;;;;;;4978303;28;19987;-82
2023/08/10 10:02:48;;;;;;;;;;;19.30;61.70;;;;;;4978662;28;19914;-83
2023/08/10 10:05:17;;;;;;;;;;;19.40;61.10;;;;;;4981084;28;19965;-84
2023/08/10 10:07:44;;;;;;;;;;;19.30;61.80;;;;;;4979276;28;19914;-83
2023/08/10 10:10:12;;;;;;;;;;;19.50;60.10;;;;;;4968526;28;19918;-82
2023/08/10 10:12:37;;;;;;;;;;;19.60;60.80;;;;;;4991757;28;20000;-82
2023/08/10 10:15:04;;;;;;;;;;;19.60;60.50;;;;;;4976706;28;19960;-83
2023/08/10 10:17:30;;;;;;;;;;;19.50;60.80;;;;;;4975087;28;19961;-83
2023/08/10 10:19:55;;;;;;;;;;;19.50;61.10;;;;;;4967529;28;20409;-83
2023/08/10 10:22:21;;;;;;;;;;;19.40;61.00;;;;;;4973647;28;19914;-83
2023/08/10 10:24:47;;;;;;;;;;;19.50;61.90;;;;;;4973762;28;19918;-83
2023/08/10 10:27:14;;;;;;;;;;;19.60;62.60;;;;;;4973236;28;20388;-83
2023/08/10 10:29:40;;;;;;;;;;;19.70;61.50;;;;;;4976820;28;19910;-84
2023/08/10 10:32:15;;;;;;;;;;;19.90;60.40;;;;;;4976484;28;20013;-82
2023/08/10 10:34:42;;;;;;;;;;;19.80;61.70;;;;;;4965440;28;20374;-82
2023/08/10 10:37:08;;;;;;;;;;;19.60;62.80;;;;;;4968558;28;19953;-83
2023/08/10 10:39:34;;;;;;;;;;;19.80;61.90;;;;;;4974452;28;20347;-83
2023/08/10 10:41:59;;;;;;;;;;;19.70;61.90;;;;;;4975524;28;19945;-82
2023/08/10 10:44:45;;;;;;;;;;;19.80;62.90;;;;;;4975413;28;19918;-82
2023/08/10 10:47:17;;;;;;;;;;;19.90;61.70;;;;;;4968293;28;19911;-82
2023/08/10 10:49:53;;;;;;;;;;;20.00;61.20;;;;;;4976363;28;19917;-83
2023/08/10 10:52:34;;;;;;;;;;;20.00;61.00;;;;;;4973973;28;20000;-81
2023/08/10 10:55:00;;;;;;;;;;;20.00;61.70;;;;;;4966080;28;19921;-82
2023/08/10 10:57:26;;;;;;;;;;;20.10;62.10;;;;;;4972817;28;19914;-82
2023/08/10 10:59:52;;;;;;;;;;;20.00;62.50;;;;;;4975076;28;20432;-83
2023/08/10 11:02:17;;;;;;;;;;;20.00;62.30;;;;;;4974758;28;19918;-83
2023/08/10 11:04:43;;;;;;;;;;;20.00;62.70;;;;;;4973042;28;19960;-82
2023/08/10 11:07:08;;;;;;;;;;;20.10;61.70;;;;;;4977435;28;19961;-80
2023/08/10 11:09:33;;;;;;;;;;;20.10;61.20;;;;;;4976216;28;19914;-81
2023/08/10 11:12:00;;;;;;;;;;;20.10;62.40;;;;;;4975500;28;19937;-80
2023/08/10 11:14:26;;;;;;;;;;;20.30;63.20;;;;;;4973371;28;19914;-82
2023/08/10 11:16:52;;;;;;;;;;;20.30;61.50;;;;;;4974829;28;19978;-82
2023/08/10 11:19:18;;;;;;;;;;;20.30;61.40;;;;;;4977123;28;19962;-81
2023/08/10 11:21:51;;;;;;;;;;;20.30;60.10;;;;;;4977661;28;19910;-82
2023/08/10 11:24:16;;;;;;;;;;;20.30;61.00;;;;;;4970197;28;19973;-83
2023/08/10 11:26:42;;;;;;;;;;;20.30;60.20;;;;;;4973925;28;19914;-84
2023/08/10 11:29:08;;;;;;;;;;;20.30;60.40;;;;;;4992388;28;19918;-81
2023/08/10 11:31:38;;;;;;;;;;;20.20;62.10;;;;;;4974287;28;19925;-83
2023/08/10 11:34:20;;;;;;;;;;;20.30;61.60;;;;;;4976528;28;20224;-84
2023/08/10 11:36:46;;;;;;;;;;;20.40;61.70;;;;;;4972134;28;19921;-83
2023/08/10 11:39:11;;;;;;;;;;;20.30;60.80;;;;;;4970110;28;19911;-82
2023/08/10 11:41:47;;;;;;;;;;;20.50;60.30;;;;;;4971390;28;19961;-83
2023/08/10 11:44:29;;;;;;;;;;;20.50;61.10;;;;;;4975074;28;19910;-83
2023/08/10 11:46:56;;;;;;;;;;;20.70;59.20;;;;;;4966536;28;19921;-83
2023/08/10 11:49:22;;;;;;;;;;;20.60;59.80;;;;;;4975166;28;19910;-82
2023/08/10 11:51:48;;;;;;;;;;;20.50;60.50;;;;;;4973710;28;19937;-80
2023/08/10 11:54:13;;;;;;;;;;;20.50;61.60;;;;;;4977154;28;20370;-83
2023/08/10 11:56:44;;;;;;;;;;;20.60;59.70;;;;;;4975464;28;19917;-82
2023/08/10 11:59:14;;;;;;;;;;;20.60;60.30;;;;;;4991379;28;19915;-83
2023/08/10 12:01:53;;;;;;;;;;;20.70;58.60;;;;;;4975522;28;19921;-83
2023/08/10 12:04:19;;;;;;;;;;;21.00;59.10;;;;;;4976075;28;19976;-83
2023/08/10 12:06:44;;;;;;;;;;;21.10;59.10;;;;;;4986501;28;19922;-81
2023/08/10 12:09:10;;;;;;;;;;;21.00;59.80;;;;;;4988391;28;19922;-83
2023/08/10 12:11:36;;;;;;;;;;;21.10;59.00;;;;;;4989415;28;19914;-83
2023/08/10 12:14:02;;;;;;;;;;;21.10;58.70;;;;;;4975205;28;19965;-80
2023/08/10 12:16:27;;;;;;;;;;;21.40;57.40;;;;;;4978572;28;19946;-83
2023/08/10 12:18:53;;;;;;;;;;;21.40;58.30;;;;;;4983134;28;19910;-82
2023/08/10 12:21:18;;;;;;;;;;;21.40;60.30;;;;;;4981581;28;19914;-80
2023/08/10 12:23:44;;;;;;;;;;;21.60;56.70;;;;;;4980126;28;19918;-82
2023/08/10 12:26:11;;;;;;;;;;;21.50;58.00;;;;;;4994815;28;20386;-87
2023/08/10 12:28:37;;;;;;;;;;;21.70;57.10;;;;;;4973748;28;19941;-86
2023/08/10 12:31:06;;;;;;;;;;;21.60;57.80;;;;;;4972528;28;19918;-82
2023/08/10 12:33:34;;;;;;;;;;;21.70;57.60;;;;;;4967632;28;19977;-82
2023/08/10 12:36:00;;;;;;;;;;;21.60;57.80;;;;;;4969455;28;19918;-83
2023/08/10 12:38:25;;;;;;;;;;;21.60;57.20;;;;;;4969272;28;19976;-84
2023/08/10 12:40:51;;;;;;;;;;;21.60;56.90;;;;;;4971152;28;19915;-83
2023/08/10 12:43:16;;;;;;;;;;;21.70;56.30;;;;;;4974768;28;19910;-83
2023/08/10 12:45:42;;;;;;;;;;;21.80;56.70;;;;;;4976733;28;19914;-82
2023/08/10 12:48:07;;;;;;;;;;;22.20;56.80;;;;;;4977553;28;19910;-81
2023/08/10 12:50:33;;;;;;;;;;;22.40;57.50;;;;;;4975857;28;20473;-82
2023/08/10 12:52:59;;;;;;;;;;;22.60;56.40;;;;;;4977110;28;20386;-83
2023/08/10 12:55:24;;;;;;;;;;;22.70;56.20;;;;;;4975202;28;19920;-84
2023/08/10 12:57:50;;;;;;;;;;;23.00;54.00;;;;;;4976640;28;19993;-82
2023/08/10 13:00:16;;;;;;;;;;;23.00;54.10;;;;;;4974624;28;19942;-82
2023/08/10 13:02:43;;;;;;;;;;;23.00;53.70;;;;;;4976886;28;20382;-84
2023/08/10 13:05:09;;;;;;;;;;;23.00;54.10;;;;;;4975025;28;20333;-81
2023/08/10 13:07:35;;;;;;;;;;;23.00;53.70;;;;;;4976582;28;19914;-82
2023/08/10 13:10:00;;;;;;;;;;;22.90;54.90;;;;;;4980067;28;20030;-83
2023/08/10 13:12:31;;;;;;;;;;;22.70;55.20;;;;;;4979399;28;19910;-82
2023/08/10 13:14:57;;;;;;;;;;;22.80;55.20;;;;;;4981926;28;20340;-82
2023/08/10 13:17:23;;;;;;;;;;;22.60;54.80;;;;;;4981598;28;19914;-83
2023/08/10 13:19:49;;;;;;;;;;;22.60;54.70;;;;;;4983120;28;19910;-83
2023/08/10 13:22:14;;;;;;;;;;;22.70;55.90;;;;;;4984920;28;19938;-82
2023/08/10 13:24:40;;;;;;;;;;;22.80;56.60;;;;;;4982132;28;20290;-83
2023/08/10 13:27:05;;;;;;;;;;;22.90;55.90;;;;;;4973858;28;19945;-83
2023/08/10 13:29:31;;;;;;;;;;;23.10;56.00;;;;;;4982505;28;19914;-80
2023/08/10 13:31:57;;;;;;;;;;;23.20;53.60;;;;;;4985434;28;19953;-83
2023/08/10 13:34:23;;;;;;;;;;;23.20;53.00;;;;;;4986956;28;19914;-83
2023/08/10 13:36:48;;;;;;;;;;;23.30;54.10;;;;;;4985492;28;19965;-83
2023/08/10 13:39:14;;;;;;;;;;;23.10;53.60;;;;;;4979549;28;19914;-83
2023/08/10 13:41:40;;;;;;;;;;;22.90;54.10;;;;;;4977914;28;20505;-83
2023/08/10 13:44:06;;;;;;;;;;;22.80;54.40;;;;;;4980619;28;20052;-82
2023/08/10 13:46:31;;;;;;;;;;;23.00;53.00;;;;;;4980874;28;19922;-83
2023/08/10 13:48:57;;;;;;;;;;;22.80;54.20;;;;;;4971236;28;19945;-83
2023/08/10 13:51:23;;;;;;;;;;;22.90;53.90;;;;;;4973688;28;19925;-82
2023/08/10 13:53:48;;;;;;;;;;;22.80;55.10;;;;;;4974561;28;20027;-83
2023/08/10 13:56:14;;;;;;;;;;;22.80;55.20;;;;;;4974788;28;19918;-83
2023/08/10 13:58:40;;;;;;;;;;;22.60;56.00;;;;;;4980480;28;20435;-84
2023/08/10 14:01:09;;;;;;;;;;;22.80;54.50;;;;;;4981499;28;19961;-83
2023/08/10 14:03:35;;;;;;;;;;;22.80;54.90;;;;;;4981151;28;19910;-82
2023/08/10 14:06:02;;;;;;;;;;;22.60;56.60;;;;;;4981763;28;19910;-82
2023/08/10 14:08:27;;;;;;;;;;;22.60;55.20;;;;;;4978484;28;19914;-83
2023/08/10 14:10:53;;;;;;;;;;;22.70;54.90;;;;;;4980126;28;19914;-83
2023/08/10 14:13:18;;;;;;;;;;;22.80;55.50;;;;;;4976789;28;19937;-83